Flight Track Log - Related Links

Times and Time Zones

All times are in EDT time to prevent confusion due to time zone crossing. See the AWE1940 flight status page for this flight to view local times or setup timezone preferences in your user account.

Time Position Orientation Groundspeed Altitude Reporting Facility
EDT Latitude Longitude Course Direction KTS MPH feet Rate Location/Type
Sun 06:39:32 PM 29.9281 -95.2511 101° East 248 285 3,100  Level Houston Center
Sun 06:40:17 PM 29.8931 -95.2222 144° Southeast 240 276 3,900 1,355 Climbing Houston Center
Sun 06:40:34 PM 29.8647 -95.2033 150° Southeast 285 328 4,500 1,935 Climbing Houston Center
Sun 06:41:00 PM 29.9245 -94.9134 101° East  Level FlightAware Approximate
Sun 06:41:19 PM 29.8264 -95.1708 144° Southeast 273 314 5,900  Level Houston Center
Sun 06:41:36 PM 29.8056 -95.1311 121° Southeast 306 352 7,300 3,000 Climbing Houston Center
Sun 06:42:00 PM 29.9088 -94.7724 95° East  Level FlightAware Approximate
Sun 06:42:21 PM 29.8108 -95.0792 83° East 304 350 9,000  Level Houston Center
Sun 06:43:00 PM 29.8941 -94.6312 101° East  Level FlightAware Approximate
Sun 06:43:23 PM 29.8256 -94.9586 82° East 315 362 11,200  Level Houston Center
Sun 06:44:00 PM 29.8709 -94.4919 101° East  Level FlightAware Approximate
Sun 06:44:26 PM 29.8336 -94.8369 86° East 359 413 13,500  Level Houston Center
Sun 06:45:28 PM 29.8400 -94.7122 87° East 377 434 15,800 2,081 Climbing Houston Center
Sun 06:46:30 PM 29.8489 -94.5808 86° East 394 453 17,800 1,984 Climbing Houston Center
Sun 06:47:32 PM 29.8569 -94.4453 86° East 415 478 19,900 1,742 Climbing Houston Center
Sun 06:48:34 PM 29.8631 -94.3058 87° East 430 495 21,400 1,707 Climbing Houston Center
Sun 06:49:35 PM 29.8575 -94.1336 92° East 449 517 23,400 1,659 Climbing Houston Center
Sun 06:50:37 PM 29.8608 -93.9867 88° East 459 528 24,800 1,306 Climbing Houston Center
Sun 06:51:39 PM 29.8894 -93.8397 77° East 471 542 26,100 1,210 Climbing Houston Center
Sun 06:52:41 PM 29.9150 -93.6914 79° East 474 545 27,300 1,258 Climbing Houston Center
Sun 06:53:43 PM 29.9400 -93.5389 79° East 484 557 28,700 1,355 Climbing Houston Center
Sun 06:54:45 PM 29.9711 -93.3569 79° East 488 562 30,100 1,104 Climbing Houston Center
Sun 06:55:48 PM 29.9964 -93.2033 79° East 493 567 31,000 432 Climbing Houston Center
Sun 06:56:50 PM 30.0217 -93.0519 79° East 487 560 31,000  Level Houston Center
Sun 06:57:52 PM 30.0475 -92.9011 79° East 482 555 31,000  Level Houston Center
Sun 06:58:54 PM 30.0778 -92.7172 79° East 487 560 31,000  Level Houston Center
Sun 06:59:56 PM 30.1047 -92.5636 79° East 489 563 31,000  Level Houston Center
Sun 07:00:58 PM 30.1294 -92.4106 79° East 488 562 31,000  Level Houston Center
Sun 07:02:00 PM 30.1539 -92.2567 80° East 489 563 31,000  Level Houston Center
Sun 07:03:02 PM 30.1792 -92.1028 79° East 489 563 31,000  Level Houston Center
Sun 07:04:04 PM 30.2078 -91.9253 79° East 490 564 31,000  Level Houston Center
Sun 07:05:06 PM 30.2333 -91.7717 79° East 490 564 31,000  Level Houston Center
Sun 07:06:08 PM 30.2553 -91.6272 80° East 487 560 31,000  Level Houston Center
Sun 07:07:10 PM 30.2797 -91.4733 80° East 487 560 31,000  Level Houston Center
Sun 07:08:12 PM 30.3097 -91.2867 79° East 492 566 31,000  Level Houston Center
Sun 07:09:14 PM 30.3333 -91.1328 80° East 489 563 31,000  Level Houston Center
Sun 07:10:16 PM 30.3578 -90.9769 80° East 493 567 31,000  Level Houston Center
Sun 07:11:18 PM 30.3814 -90.8189 80° East 497 572 31,000  Level Houston Center
Sun 07:12:20 PM 30.4053 -90.6606 80° East 501 577 31,000  Level Houston Center
Sun 07:13:22 PM 30.4292 -90.5017 80° East 501 577 31,000  Level Houston Center
Sun 07:14:24 PM 30.4572 -90.3094 80° East 505 581 31,000  Level Houston Center
Sun 07:15:26 PM 30.4794 -90.1492 81° East 503 579 31,000  Level Houston Center
Sun 07:16:28 PM 30.5036 -89.9878 80° East 504 580 31,000  Level Houston Center
Sun 07:17:30 PM 30.5269 -89.8242 81° East 505 581 31,000  Level Houston Center
Sun 07:18:32 PM 30.5503 -89.6608 81° East 504 580 31,000  Level Houston Center
Sun 07:19:34 PM 30.5728 -89.4981 81° East 506 582 31,000  Level Houston Center
Sun 07:20:36 PM 30.5958 -89.3353 81° East 510 587 31,000  Level Houston Center
Sun 07:21:37 PM 30.6172 -89.1722 81° East 513 590 31,000  Level Houston Center
Sun 07:22:39 PM 30.6397 -89.0089 81° East 514 592 31,000  Level Houston Center
Sun 07:23:41 PM 30.6636 -88.8117 82° East 515 593 31,000  Level Houston Center
Sun 07:24:43 PM 30.6875 -88.6486 80° East 515 593 31,000  Level Houston Center
Sun 07:25:44 PM 30.7092 -88.4831 81° East 517 595 31,000  Level Houston Center
Sun 07:26:46 PM 30.7317 -88.3172 81° East 519 597 31,000  Level Houston Center
Sun 07:27:48 PM 30.7500 -88.1511 83° East 520 598 31,000  Level Houston Center
Sun 07:28:50 PM 30.7728 -87.9853 81° East 520 598 31,000  Level Houston Center
Sun 07:29:51 PM 30.7964 -87.7942 82° East 528 608 31,000  Level Jacksonville Center
Sun 07:30:51 PM 30.8153 -87.6236 83° East 528 608 31,000  Level Jacksonville Center
Sun 07:31:51 PM 30.8381 -87.4578 81° East 523 602 31,000  Level Jacksonville Center
Sun 07:32:51 PM 30.8567 -87.2894 83° East 523 602 31,000  Level Jacksonville Center
Sun 07:33:51 PM 30.8769 -87.1208 82° East 518 596 31,000  Level Jacksonville Center
Sun 07:34:51 PM 30.8969 -86.9522 82° East 518 596 31,000  Level Jacksonville Center
Sun 07:35:51 PM 30.9167 -86.7861 82° East 518 596 31,000  Level Jacksonville Center
Sun 07:36:51 PM 30.9325 -86.6125 84° East 518 596 31,000  Level Jacksonville Center
Sun 07:37:51 PM 30.9519 -86.4461 82° East 518 596 31,000  Level Jacksonville Center
Sun 07:38:51 PM 30.9686 -86.2942 83° East 518 596 31,000  Level Jacksonville Center
Sun 07:39:51 PM 30.9853 -86.1300 83° East 518 596 31,000  Level Jacksonville Center
Sun 07:40:51 PM 31.0061 -85.9611 82° East 518 596 31,000  Level Jacksonville Center
Sun 07:41:51 PM 31.0331 -85.7922 79° East 523 602 31,000  Level Jacksonville Center
Sun 07:42:51 PM 31.0597 -85.6306 79° East 523 602 31,000  Level Jacksonville Center
Sun 07:43:51 PM 31.0903 -85.4617 78° East 524 603 31,000  Level Jacksonville Center
Sun 07:44:51 PM 31.1600 -85.3178 60° Northeast 516 594 31,000  Level Jacksonville Center
Sun 07:45:51 PM 31.2644 -85.1967 45° Northeast 502 578 31,000  Level Jacksonville Center
Sun 07:47:57 PM 31.4825 -84.9375 45° Northeast 514 592 31,000  Level Atlanta Center
Sun 07:48:57 PM 31.5878 -84.8142 45° Northeast 514 592 31,000  Level Atlanta Center
Sun 07:49:57 PM 31.6886 -84.6931 46° Northeast 514 592 31,000  Level Atlanta Center
Sun 07:50:57 PM 31.7894 -84.5714 46° Northeast 514 592 31,000  Level Atlanta Center
Sun 07:51:57 PM 31.8919 -84.4475 46° Northeast 514 592 31,000  Level Atlanta Center
Sun 07:52:57 PM 31.9906 -84.3253 46° Northeast 519 597 31,000  Level Atlanta Center
Sun 07:53:57 PM 32.0931 -84.2031 45° Northeast 519 597 31,000  Level Atlanta Center
Sun 07:54:57 PM 32.1911 -84.0806 47° Northeast 514 592 31,000  Level Atlanta Center
Sun 07:55:57 PM 32.2914 -83.9553 47° Northeast 509 586 31,000  Level Atlanta Center
Sun 07:56:57 PM 32.3894 -83.8372 45° Northeast 503 579 31,000  Level Atlanta Center
Sun 07:57:57 PM 32.4892 -83.7139 46° Northeast 503 579 31,000  Level Atlanta Center
Sun 07:58:57 PM 32.5869 -83.5903 47° Northeast 503 579 31,000  Level Atlanta Center
Sun 07:59:57 PM 32.6742 -83.4861 45° Northeast 497 572 31,000  Level Atlanta Center
Sun 08:00:57 PM 32.7697 -83.3644 47° Northeast 497 572 31,000  Level Atlanta Center
Sun 08:01:57 PM 32.8711 -83.2325 48° Northeast 497 572 31,000  Level Atlanta Center
Sun 08:02:57 PM 32.9661 -83.1103 47° Northeast 497 572 31,000  Level Atlanta Center
Sun 08:03:57 PM 33.0592 -82.9928 47° Northeast 497 572 31,000 -50 Level Atlanta Center
Sun 08:04:57 PM 33.1542 -82.8750 46° Northeast 497 572 30,900 -500 Descending Atlanta Center
Sun 08:05:57 PM 33.2447 -82.7572 47° Northeast 492 566 30,000 -950 Descending Atlanta Center
Sun 08:06:57 PM 33.3417 -82.6364 46° Northeast 492 566 29,000 -950 Descending Atlanta Center
Sun 08:07:57 PM 33.4403 -82.5153 46° Northeast 499 574 28,100 -950 Descending Atlanta Center
Sun 08:08:57 PM 33.5306 -82.3967 48° Northeast 487 560 27,100 -900 Descending Atlanta Center
Sun 08:09:57 PM 33.6086 -82.3003 46° Northeast 477 549 26,300 -950 Descending Atlanta Center
Sun 08:10:57 PM 33.7050 -82.1761 47° Northeast 472 543 25,200 -1,000 Descending Atlanta Center
Sun 08:11:57 PM 33.8383 -82.1581 North 451 519 24,300 -600 Descending Atlanta Center
Sun 08:12:57 PM 33.9886 -82.1597 359° North 468 539 24,000 -150 Descending Atlanta Center
Sun 08:13:57 PM 34.1242 -82.1567 North 474 545 24,000 -300 Level Atlanta Center
Sun 08:14:57 PM 34.2533 -82.1389 North 474 545 23,400 -1,450 Descending Atlanta Center
Sun 08:15:57 PM 34.3497 -82.0311 43° Northeast 441 507 21,100 -2,500 Descending Atlanta Center
Sun 08:16:57 PM 34.4375 -81.9181 47° Northeast 446 513 18,400 -2,700 Descending Atlanta Center
Sun 08:17:57 PM 34.5233 -81.8075 47° Northeast 446 513 15,700 -2,544 Descending Atlanta Center
Sun 08:19:02 PM 34.6108 -81.6992 46° Northeast 419 482 13,100 -2,376 Descending Atlanta Center
Sun 08:19:38 PM 34.6558 -81.6397 47° Northeast 393 452 11,700 -1,855 Descending Atlanta Center
Sun 08:19:57 PM 34.6781 -81.6139 44° Northeast 400 460 11,400 -590 Descending Atlanta Center
Sun 08:20:39 PM 34.7250 -81.5544 46° Northeast 333 383 11,100 -400 Descending Atlanta Center
Sun 08:20:57 PM 34.7433 -81.5311 46° Northeast 356 410 11,000 -90 Descending Atlanta Center
Sun 08:21:46 PM 34.7900 -81.4692 47° Northeast 309 356 11,000 -404 Level Atlanta Center
Sun 08:22:41 PM 34.8386 -81.4044 48° Northeast 285 328 10,300 -1,183 Descending Atlanta Center
Sun 08:22:57 PM 34.8444 -81.3789 74° East 287 330 9,600 -1,701 Descending Atlanta Center
Sun 08:23:48 PM 34.8344 -81.3083 100° East 231 266 8,400 -1,300 Descending Atlanta Center
Sun 08:24:57 PM 34.8367 -81.2197 88° East 231 266 7,000 -672 Descending Atlanta Center
Sun 08:25:44 PM 34.8394 -81.1589 87° East 223 257 7,100 -807 Climbing Atlanta Center
Sun 08:26:56 PM 34.8433 -81.0650 87° East 226 260 5,400 -947 Descending Atlanta Center
Sun 08:27:57 PM 34.8775 -81.0056 55° Northeast 213 245 5,000 -198 Descending Atlanta Center
Sun 08:28:57 PM 34.9306 -80.9556 38° Northeast 228 262 5,000 -52 Level Atlanta Center
Sun 08:29:53 PM 34.9928 -80.9481 North 250 288 4,900 -769 Descending Atlanta Center
Sun 08:30:54 PM 35.0600 -80.9558 355° North 238 274 3,500 -1,219 Descending Atlanta Center
Sun 08:32:01 PM 35.1225 -80.9611 356° North 193 222 2,300 -934 Descending Atlanta Center
Sun 08:32:56 PM 35.1622 -80.9647 356° North 143 165 1,600 -764 Descending Atlanta Center

Login

Don't have an account? Register now (free) for customized features, flight alerts, and more!